createdAt,value
2023-05-20T00:00:19.450Z,29.86
2023-05-20T00:01:19.471Z,29.87
2023-05-20T00:02:19.533Z,29.89
2023-05-20T00:03:19.571Z,29.90
2023-05-20T00:04:19.612Z,29.89
2023-05-20T00:05:19.576Z,29.93
2023-05-20T00:06:19.574Z,29.92
2023-05-20T00:07:19.563Z,29.96
2023-05-20T00:08:19.600Z,29.92
2023-05-20T00:09:19.621Z,29.86
2023-05-20T00:10:19.637Z,29.92
2023-05-20T00:11:19.647Z,29.96
2023-05-20T00:12:19.665Z,29.91
2023-05-20T00:13:19.665Z,29.92
2023-05-20T00:14:19.690Z,29.93
2023-05-20T00:15:19.701Z,29.89
2023-05-20T00:16:19.750Z,29.90
2023-05-20T00:17:19.750Z,29.96
2023-05-20T00:18:19.763Z,29.96
2023-05-20T00:19:19.894Z,29.89
2023-05-20T00:20:19.802Z,30.00
2023-05-20T00:21:19.822Z,29.99
2023-05-20T00:22:19.821Z,29.96
2023-05-20T00:23:19.864Z,29.95
2023-05-20T00:24:19.864Z,29.95
2023-05-20T00:25:19.895Z,29.91
2023-05-20T00:26:19.919Z,29.92
2023-05-20T00:27:19.948Z,29.92
2023-05-20T00:28:19.974Z,29.92
2023-05-20T00:29:19.976Z,29.90
2023-05-20T00:30:19.992Z,29.96
2023-05-20T00:31:19.998Z,29.95
2023-05-20T00:32:20.052Z,29.96
2023-05-20T00:33:20.035Z,29.99
2023-05-20T00:34:20.057Z,30.05
2023-05-20T00:35:20.085Z,29.94
2023-05-20T00:36:20.089Z,29.97
2023-05-20T00:37:20.120Z,30.00
2023-05-20T00:38:20.124Z,30.08
2023-05-20T00:39:20.140Z,29.97
2023-05-20T00:40:20.156Z,30.05
2023-05-20T00:41:20.182Z,30.02
2023-05-20T00:42:20.189Z,29.97
2023-05-20T00:43:20.233Z,30.02
2023-05-20T00:44:20.226Z,30.02
2023-05-20T00:45:20.254Z,30.02
2023-05-20T00:46:20.285Z,30.05
2023-05-20T00:47:20.285Z,30.03
2023-05-20T00:48:20.314Z,29.94
2023-05-20T00:49:20.306Z,30.02
2023-05-20T00:50:20.348Z,29.99
2023-05-20T00:51:20.344Z,30.06
2023-05-20T00:52:20.381Z,30.00
2023-05-20T00:53:20.384Z,30.00
2023-05-20T00:54:20.414Z,30.00
2023-05-20T00:55:20.434Z,30.03
2023-05-20T00:56:20.458Z,30.03
2023-05-20T00:57:20.465Z,30.00
2023-05-20T00:58:20.478Z,30.00
2023-05-20T00:59:20.502Z,30.02
2023-05-20T01:00:20.535Z,30.05
2023-05-20T01:01:20.551Z,29.99
2023-05-20T01:02:20.625Z,30.03
2023-05-20T01:03:20.779Z,30.00
2023-05-20T01:04:20.603Z,30.00
2023-05-20T01:05:20.616Z,30.05
2023-05-20T01:06:20.634Z,29.99
2023-05-20T01:07:20.653Z,29.97
2023-05-20T01:08:20.670Z,29.93
2023-05-20T01:09:20.698Z,29.97
2023-05-20T01:10:20.699Z,29.99
2023-05-20T01:11:20.726Z,29.99
2023-05-20T01:12:20.770Z,29.99
2023-05-20T01:13:20.767Z,30.06
2023-05-20T01:14:20.805Z,30.00
2023-05-20T01:15:20.826Z,29.97
2023-05-20T01:16:20.873Z,29.97
2023-05-20T01:17:20.876Z,29.97
2023-05-20T01:18:20.900Z,29.99
2023-05-20T01:19:20.963Z,30.00
2023-05-20T01:20:20.931Z,29.94
2023-05-20T01:21:20.953Z,29.96
2023-05-20T01:22:20.979Z,29.99
2023-05-20T01:23:20.993Z,29.99
2023-05-20T01:24:21.025Z,29.94
2023-05-20T01:25:21.039Z,29.96
2023-05-20T01:26:21.059Z,29.96
2023-05-20T01:27:21.078Z,29.96
2023-05-20T01:28:21.115Z,30.00
2023-05-20T01:29:21.124Z,29.96
2023-05-20T01:30:21.150Z,29.94
2023-05-20T01:31:21.212Z,29.97
2023-05-20T01:32:21.165Z,29.96
2023-05-20T01:33:21.181Z,29.95
2023-05-20T01:34:21.188Z,29.97
2023-05-20T01:35:21.210Z,29.94
2023-05-20T01:36:21.247Z,29.96
2023-05-20T01:37:21.244Z,29.96
2023-05-20T01:38:21.280Z,29.98
2023-05-20T01:39:21.280Z,29.96
2023-05-20T01:40:21.310Z,29.97
2023-05-20T01:41:21.309Z,29.97
2023-05-20T01:42:21.370Z,29.96
2023-05-20T01:43:21.341Z,29.99
2023-05-20T01:44:21.371Z,29.97
2023-05-20T01:45:21.384Z,29.99
2023-05-20T01:46:21.438Z,29.97
2023-05-20T01:47:21.435Z,30.00
2023-05-20T01:48:21.442Z,30.00
2023-05-20T01:49:21.470Z,30.00
2023-05-20T01:50:21.472Z,29.96
2023-05-20T01:51:21.510Z,30.00
2023-05-20T01:52:21.518Z,29.97
2023-05-20T01:53:21.531Z,30.01
2023-05-20T01:54:21.570Z,29.91
2023-05-20T01:55:21.597Z,30.00
2023-05-20T01:56:21.591Z,29.98
2023-05-20T01:57:21.622Z,29.98
2023-05-20T01:58:21.631Z,29.94
2023-05-20T01:59:21.661Z,29.95
2023-05-20T02:00:21.664Z,30.00
2023-05-20T02:01:21.790Z,29.95
2023-05-20T02:02:21.775Z,29.94
2023-05-20T02:03:21.779Z,29.98
2023-05-20T02:04:21.761Z,29.99
2023-05-20T02:05:21.794Z,30.00
2023-05-20T02:06:21.799Z,29.97
2023-05-20T02:07:21.823Z,29.98
2023-05-20T02:08:21.833Z,30.03
2023-05-20T02:09:21.856Z,29.95
2023-05-20T02:10:21.876Z,29.98
2023-05-20T02:11:21.913Z,29.98
2023-05-20T02:12:21.940Z,30.05
2023-05-20T02:13:21.949Z,30.08
2023-05-20T02:14:21.982Z,30.04
2023-05-20T02:15:22.020Z,30.04
2023-05-20T02:16:22.047Z,30.01
2023-05-20T02:17:22.048Z,29.99
2023-05-20T02:18:22.053Z,30.00
2023-05-20T02:19:22.114Z,29.94
2023-05-20T02:20:22.101Z,29.95
2023-05-20T02:21:22.112Z,30.02
2023-05-20T02:22:22.124Z,30.02
2023-05-20T02:23:22.160Z,30.01
2023-05-20T02:24:22.186Z,30.01
2023-05-20T02:25:22.194Z,29.95
2023-05-20T02:26:22.224Z,30.00
2023-05-20T02:27:22.343Z,30.01
2023-05-20T02:28:22.286Z,30.01
2023-05-20T02:29:22.295Z,30.05
2023-05-20T02:30:22.330Z,29.98
2023-05-20T02:31:22.357Z,30.05
2023-05-20T02:32:22.363Z,30.00
2023-05-20T02:33:22.414Z,29.99
2023-05-20T02:34:22.490Z,30.04
2023-05-20T02:35:22.430Z,30.04
2023-05-20T02:36:22.470Z,30.02
2023-05-20T02:37:22.475Z,30.04
2023-05-20T02:38:22.500Z,30.02
2023-05-20T02:39:22.515Z,30.02
2023-05-20T02:40:22.553Z,30.01
2023-05-20T02:41:22.564Z,30.02
2023-05-20T02:42:22.578Z,30.02
2023-05-20T02:43:22.605Z,30.01
2023-05-20T02:44:22.628Z,30.05
2023-05-20T02:45:22.660Z,29.99
2023-05-20T02:46:22.707Z,30.07
2023-05-20T02:47:22.726Z,30.01
2023-05-20T02:48:22.740Z,29.98
2023-05-20T02:49:22.756Z,30.04
2023-05-20T02:50:22.782Z,30.01
2023-05-20T02:51:22.825Z,30.04
2023-05-20T02:52:22.818Z,30.04
2023-05-20T02:53:22.851Z,30.01
2023-05-20T02:55:09.013Z,30.05
2023-05-20T02:56:08.996Z,30.08
2023-05-20T02:57:09.002Z,30.04
2023-05-20T02:58:08.975Z,30.07
2023-05-20T02:59:08.980Z,30.07
2023-05-20T03:00:08.971Z,30.04
2023-05-20T03:01:09.036Z,30.02
2023-05-20T03:02:09.029Z,30.02
2023-05-20T03:03:08.992Z,30.04
2023-05-20T03:04:08.983Z,30.04
2023-05-20T03:05:08.947Z,30.05
2023-05-20T03:06:08.938Z,30.01
2023-05-20T03:07:08.969Z,30.04
2023-05-20T03:08:08.945Z,30.07
2023-05-20T03:09:08.934Z,30.04
2023-05-20T03:10:08.910Z,30.02
2023-05-20T03:11:08.906Z,30.02
2023-05-20T03:12:08.913Z,30.02
2023-05-20T03:13:08.908Z,29.99
2023-05-20T03:14:08.895Z,30.04
2023-05-20T03:15:08.889Z,30.05
2023-05-20T03:16:08.925Z,30.04
2023-05-20T03:17:08.859Z,30.04
2023-05-20T03:18:08.868Z,30.01
2023-05-20T03:19:08.876Z,30.02
2023-05-20T03:20:08.852Z,30.01
2023-05-20T03:21:08.859Z,30.01
2023-05-20T03:22:08.846Z,29.98
2023-05-20T03:23:08.830Z,30.04
2023-05-20T03:24:08.859Z,30.01
2023-05-20T03:25:08.822Z,30.07
2023-05-20T03:26:08.820Z,29.99
2023-05-20T03:27:08.809Z,29.98
2023-05-20T03:28:08.806Z,30.01
2023-05-20T03:29:08.807Z,30.07
2023-05-20T03:30:08.800Z,30.04
2023-05-20T03:31:08.838Z,30.04
2023-05-20T03:32:10.135Z,30.07
2023-05-20T03:33:08.818Z,30.02
2023-05-20T03:34:08.785Z,30.04
2023-05-20T03:35:08.755Z,30.07
2023-05-20T03:36:08.790Z,30.01
2023-05-20T03:37:08.767Z,30.01
2023-05-20T03:38:08.788Z,29.99
2023-05-20T03:39:08.741Z,29.98
2023-05-20T03:40:08.733Z,29.99
2023-05-20T03:41:08.737Z,30.01
2023-05-20T03:42:08.720Z,29.98
2023-05-20T03:43:08.707Z,29.97
2023-05-20T03:44:08.721Z,29.99
2023-05-20T03:45:08.720Z,30.05
2023-05-20T03:46:08.759Z,29.99
2023-05-20T03:47:08.746Z,29.99
2023-05-20T03:48:08.825Z,29.95
2023-05-20T03:49:08.816Z,30.05
2023-05-20T03:50:08.833Z,30.05
2023-05-20T03:51:08.847Z,30.01
2023-05-20T03:52:08.854Z,29.99
2023-05-20T03:53:08.875Z,30.01
2023-05-20T03:54:08.936Z,29.98
2023-05-20T03:55:08.958Z,29.99
2023-05-20T03:56:08.934Z,29.95
2023-05-20T03:57:08.954Z,29.94
2023-05-20T03:58:08.992Z,29.97
2023-05-20T03:59:09.001Z,29.97
2023-05-20T04:00:09.029Z,29.94
2023-05-20T04:01:09.034Z,29.94
2023-05-20T04:02:09.111Z,29.92
2023-05-20T04:03:09.211Z,29.92
2023-05-20T04:04:09.156Z,29.94
2023-05-20T04:05:09.122Z,29.97
2023-05-20T04:06:09.136Z,29.91
2023-05-20T04:07:09.168Z,29.87
2023-05-20T04:08:09.187Z,29.94
2023-05-20T04:09:09.212Z,29.91
2023-05-20T04:10:09.231Z,29.90
2023-05-20T04:11:09.240Z,29.87
2023-05-20T04:12:09.262Z,29.88
2023-05-20T04:13:09.279Z,29.81
2023-05-20T04:14:09.283Z,29.93
2023-05-20T04:15:09.290Z,29.86
2023-05-20T04:16:09.323Z,29.87
2023-05-20T04:17:09.419Z,29.85
2023-05-20T04:18:09.391Z,29.87
2023-05-20T04:19:09.412Z,29.82
2023-05-20T04:20:09.383Z,29.87
2023-05-20T04:21:09.367Z,29.84
2023-05-20T04:22:09.403Z,29.84
2023-05-20T04:23:09.417Z,29.83
2023-05-20T04:24:09.420Z,29.83
2023-05-20T04:25:09.437Z,29.84
2023-05-20T04:26:09.452Z,29.82
2023-05-20T04:27:09.461Z,29.84
2023-05-20T04:28:09.478Z,29.87
2023-05-20T04:29:09.485Z,29.86
2023-05-20T04:30:09.501Z,29.89
2023-05-20T04:31:09.508Z,29.86
2023-05-20T04:32:09.599Z,29.80
2023-05-20T04:33:09.633Z,29.87
2023-05-20T04:34:09.588Z,29.84
2023-05-20T04:35:09.591Z,29.82
2023-05-20T04:36:09.608Z,29.82
2023-05-20T04:37:09.644Z,29.80
2023-05-20T04:38:09.641Z,29.82
2023-05-20T04:39:09.660Z,29.82
2023-05-20T04:40:09.668Z,29.79
2023-05-20T04:41:09.677Z,29.79
2023-05-20T04:42:09.683Z,29.76
2023-05-20T04:43:09.678Z,29.76
2023-05-20T04:44:09.693Z,29.76
2023-05-20T04:45:09.720Z,29.75
2023-05-20T04:46:09.794Z,29.72
2023-05-20T04:47:09.747Z,29.70
2023-05-20T04:48:09.814Z,29.72
2023-05-20T04:49:09.786Z,29.71
2023-05-20T04:50:09.771Z,29.68
2023-05-20T04:51:09.793Z,29.59
2023-05-20T04:52:09.795Z,29.58
2023-05-20T04:53:09.789Z,29.58
2023-05-20T04:54:09.804Z,29.54
2023-05-20T04:55:09.799Z,29.47
2023-05-20T04:56:09.810Z,29.50
2023-05-20T04:57:09.796Z,29.36
2023-05-20T04:58:09.850Z,29.29
2023-05-20T04:59:09.914Z,29.25
2023-05-20T05:00:09.976Z,29.14
2023-05-20T05:01:10.056Z,29.06
2023-05-20T05:02:10.079Z,29.00
2023-05-20T05:03:10.128Z,28.79
2023-05-20T05:04:10.167Z,28.59
2023-05-20T05:05:10.135Z,28.42
2023-05-20T05:06:10.159Z,28.27
2023-05-20T05:07:10.174Z,28.22
2023-05-20T05:08:10.190Z,28.02
2023-05-20T05:09:10.238Z,27.92
2023-05-20T05:10:10.318Z,27.76
2023-05-20T05:11:10.360Z,27.53
2023-05-20T05:12:10.410Z,27.48
2023-05-20T05:13:10.443Z,27.36
2023-05-20T05:14:10.457Z,27.25
2023-05-20T05:15:10.439Z,27.13
2023-05-20T05:16:10.466Z,27.09
2023-05-20T05:17:10.455Z,27.11
2023-05-20T05:18:10.469Z,27.11
2023-05-20T05:19:10.572Z,27.19
2023-05-20T05:20:10.483Z,27.26
2023-05-20T05:21:10.521Z,27.28
2023-05-20T05:22:10.547Z,27.27
2023-05-20T05:23:10.577Z,27.18
2023-05-20T05:24:10.576Z,27.01
2023-05-20T05:25:10.614Z,26.85
2023-05-20T05:26:10.645Z,26.69
2023-05-20T05:27:10.699Z,26.53
2023-05-20T05:28:10.738Z,26.50
2023-05-20T05:29:11.808Z,26.42
2023-05-20T05:30:10.821Z,26.29
2023-05-20T05:31:10.869Z,26.30
2023-05-20T05:32:10.912Z,26.31
2023-05-20T05:33:10.953Z,26.29
2023-05-20T05:34:10.995Z,26.23
2023-05-20T05:35:11.026Z,26.33
2023-05-20T05:36:11.034Z,26.31
2023-05-20T05:37:11.097Z,26.28
2023-05-20T05:38:11.118Z,26.23
2023-05-20T05:39:11.155Z,26.17
2023-05-20T05:40:11.183Z,26.04
2023-05-20T05:41:11.203Z,25.89
2023-05-20T05:42:11.200Z,25.65
2023-05-20T05:43:11.239Z,25.57
2023-05-20T05:44:11.299Z,25.44
2023-05-20T05:45:11.331Z,25.40
2023-05-20T05:46:11.401Z,25.32
2023-05-20T05:47:11.546Z,25.25
2023-05-20T05:48:11.641Z,25.10
2023-05-20T05:49:11.544Z,24.89
2023-05-20T05:50:11.568Z,24.72
2023-05-20T05:51:11.584Z,24.50
2023-05-20T05:52:11.582Z,24.42
2023-05-20T05:53:11.598Z,24.20
2023-05-20T05:54:11.652Z,24.11
2023-05-20T05:55:11.734Z,23.84
2023-05-20T05:56:11.758Z,23.70
2023-05-20T05:57:11.796Z,23.51
2023-05-20T05:58:11.812Z,23.39
2023-05-20T05:59:11.809Z,23.15
2023-05-20T06:00:11.816Z,23.05
2023-05-20T06:01:11.886Z,23.07
2023-05-20T06:02:11.908Z,23.03
2023-05-20T06:03:11.919Z,23.03
2023-05-20T06:04:11.895Z,22.99
2023-05-20T06:05:11.864Z,23.16
2023-05-20T06:06:11.913Z,23.24
2023-05-20T06:07:11.936Z,23.36
2023-05-20T06:08:11.983Z,23.42
2023-05-20T06:09:12.002Z,23.49
2023-05-20T06:10:12.049Z,23.63
2023-05-20T06:11:12.074Z,23.85
2023-05-20T06:12:13.886Z,24.11
2023-05-20T06:13:12.121Z,24.35
2023-05-20T06:14:12.171Z,24.52
2023-05-20T06:15:12.173Z,24.67
2023-05-20T06:16:12.213Z,24.84
2023-05-20T06:17:12.207Z,25.02
2023-05-20T06:18:12.223Z,25.22
2023-05-20T06:19:12.307Z,25.31
2023-05-20T06:20:12.310Z,25.48
2023-05-20T06:21:12.311Z,25.57
2023-05-20T06:22:12.346Z,25.76
2023-05-20T06:23:12.365Z,25.82
2023-05-20T06:24:12.413Z,25.92
2023-05-20T06:25:12.472Z,26.09
2023-05-20T06:26:12.524Z,26.16
2023-05-20T06:27:12.599Z,26.33
2023-05-20T06:28:12.611Z,26.36
2023-05-20T06:29:12.590Z,26.47
2023-05-20T06:30:12.587Z,26.55
2023-05-20T06:31:12.722Z,26.68
2023-05-20T06:32:12.639Z,26.82
2023-05-20T06:33:12.692Z,26.95
2023-05-20T06:34:12.718Z,27.02
2023-05-20T06:35:12.780Z,27.13
2023-05-20T06:36:12.802Z,27.19
2023-05-20T06:37:12.853Z,27.20
2023-05-20T06:38:12.975Z,27.26
2023-05-20T06:39:12.975Z,27.31
2023-05-20T06:40:13.035Z,27.32
2023-05-20T06:41:13.097Z,27.34
2023-05-20T06:42:13.136Z,27.37
2023-05-20T06:43:13.216Z,27.42
2023-05-20T06:44:13.191Z,27.46
2023-05-20T06:45:13.214Z,27.45
2023-05-20T06:46:13.270Z,27.46
2023-05-20T06:47:13.266Z,27.45
2023-05-20T06:48:13.321Z,27.53
2023-05-20T06:49:13.321Z,27.62
2023-05-20T06:50:13.337Z,27.63
2023-05-20T06:51:13.334Z,27.65
2023-05-20T06:52:13.350Z,27.71
2023-05-20T06:53:13.357Z,27.72
2023-05-20T06:54:13.364Z,27.74
2023-05-20T06:55:13.358Z,27.82
2023-05-20T06:56:13.348Z,27.85
2023-05-20T06:57:13.351Z,27.82
2023-05-20T06:58:13.366Z,27.86
2023-05-20T06:59:13.367Z,27.84
2023-05-20T07:00:13.371Z,27.96
2023-05-20T07:01:13.855Z,27.89
2023-05-20T07:02:13.392Z,27.96
2023-05-20T07:03:13.395Z,28.08
2023-05-20T07:04:13.456Z,27.98
2023-05-20T07:05:13.394Z,28.05
2023-05-20T07:06:13.399Z,28.08
2023-05-20T07:07:14.457Z,28.04
2023-05-20T07:08:13.396Z,28.14
2023-05-20T07:09:13.417Z,28.12
2023-05-20T07:10:13.413Z,28.09
2023-05-20T07:11:13.404Z,28.04
2023-05-20T07:12:13.421Z,28.07
2023-05-20T07:13:13.441Z,27.97
2023-05-20T07:14:13.453Z,28.20
2023-05-20T07:15:13.439Z,28.15
2023-05-20T07:16:13.465Z,28.14
2023-05-20T07:17:13.448Z,28.14
2023-05-20T07:18:13.530Z,28.08
2023-05-20T07:19:13.479Z,28.15
2023-05-20T07:20:13.458Z,28.17
2023-05-20T07:21:13.436Z,28.28
2023-05-20T07:22:13.433Z,28.22
2023-05-20T07:23:15.558Z,28.13
2023-05-20T07:24:13.451Z,28.17
2023-05-20T07:25:13.441Z,28.11
2023-05-20T07:26:13.442Z,28.12
2023-05-20T07:27:13.457Z,28.13
2023-05-20T07:28:13.476Z,28.20
2023-05-20T07:29:13.490Z,28.23
2023-05-20T07:30:13.514Z,28.12
2023-05-20T07:31:13.644Z,28.13
2023-05-20T07:32:13.601Z,28.09
2023-05-20T07:33:13.644Z,28.07
2023-05-20T07:34:13.699Z,28.06
2023-05-20T07:35:13.716Z,28.07
2023-05-20T07:36:13.752Z,28.12
2023-05-20T07:37:13.789Z,28.13
2023-05-20T07:38:13.794Z,28.10
2023-05-20T07:39:15.207Z,28.10
2023-05-20T07:40:13.875Z,28.06
2023-05-20T07:41:13.898Z,28.07
2023-05-20T07:42:13.919Z,28.07
2023-05-20T07:43:13.973Z,28.02
2023-05-20T07:44:13.995Z,28.11
2023-05-20T07:45:14.048Z,28.17
2023-05-20T07:46:14.103Z,28.12
2023-05-20T07:47:14.046Z,28.19
2023-05-20T07:48:14.066Z,28.19
2023-05-20T07:49:14.084Z,28.09
2023-05-20T07:50:14.123Z,28.10
2023-05-20T07:51:14.149Z,28.10
2023-05-20T07:52:14.167Z,28.07
2023-05-20T07:53:14.189Z,28.09
2023-05-20T07:54:14.231Z,28.09
2023-05-20T07:55:14.252Z,28.04
2023-05-20T07:56:14.289Z,28.19
2023-05-20T07:57:14.293Z,28.12
2023-05-20T07:58:14.317Z,28.19
2023-05-20T07:59:14.332Z,28.16
2023-05-20T08:00:14.369Z,28.17
2023-05-20T08:01:14.352Z,28.15
2023-05-20T08:02:14.397Z,28.14
2023-05-20T08:03:14.534Z,28.21
2023-05-20T08:04:14.428Z,28.22
2023-05-20T08:05:14.362Z,28.19
2023-05-20T08:06:14.348Z,28.18
2023-05-20T08:07:14.353Z,28.17
2023-05-20T08:08:14.363Z,28.17
2023-05-20T08:09:14.381Z,28.11
2023-05-20T08:10:14.358Z,28.09
2023-05-20T08:11:14.354Z,28.12
2023-05-20T08:12:14.346Z,28.11
2023-05-20T08:13:14.369Z,28.08
2023-05-20T08:14:14.378Z,28.08
2023-05-20T08:15:14.345Z,28.06
2023-05-20T08:16:14.406Z,28.05
2023-05-20T08:17:14.435Z,28.11
2023-05-20T08:18:14.397Z,28.14
2023-05-20T08:19:14.420Z,28.13
2023-05-20T08:20:14.357Z,28.14
2023-05-20T08:21:14.355Z,28.10
2023-05-20T08:22:14.360Z,28.11
2023-05-20T08:23:14.364Z,28.15
2023-05-20T08:24:14.363Z,28.12
2023-05-20T08:25:14.346Z,28.12
2023-05-20T08:26:14.368Z,28.05
2023-05-20T08:27:14.377Z,28.02
2023-05-20T08:28:14.383Z,28.05
2023-05-20T08:29:14.350Z,28.02
2023-05-20T08:30:14.351Z,28.05
2023-05-20T08:31:14.441Z,28.07
2023-05-20T08:32:14.369Z,28.05
2023-05-20T08:33:14.352Z,28.03
2023-05-20T08:34:14.370Z,27.96
2023-05-20T08:35:14.361Z,27.99
2023-05-20T08:36:14.371Z,27.96
2023-05-20T08:37:14.380Z,27.96
2023-05-20T08:38:14.364Z,28.00
2023-05-20T08:39:14.369Z,27.97
2023-05-20T08:40:14.363Z,27.97
2023-05-20T08:41:14.361Z,27.89
2023-05-20T08:42:14.377Z,27.91
2023-05-20T08:43:14.378Z,27.94
2023-05-20T08:44:14.394Z,27.93
2023-05-20T08:45:14.385Z,27.89
2023-05-20T08:46:15.171Z,27.93
2023-05-20T08:47:14.398Z,27.90
2023-05-20T08:48:14.440Z,27.96
2023-05-20T08:49:14.411Z,27.87
2023-05-20T08:50:14.390Z,27.97
2023-05-20T08:51:14.423Z,27.91
2023-05-20T08:52:14.390Z,27.94
2023-05-20T08:53:14.397Z,27.88
2023-05-20T08:54:14.414Z,27.89
2023-05-20T08:55:14.402Z,27.88
2023-05-20T08:56:14.425Z,27.83
2023-05-20T08:57:14.410Z,27.85
2023-05-20T08:58:14.411Z,27.83
2023-05-20T08:59:14.430Z,27.88
2023-05-20T09:00:14.438Z,27.83
2023-05-20T09:01:14.511Z,27.82
2023-05-20T09:02:14.481Z,27.78
2023-05-20T09:03:14.586Z,27.82
2023-05-20T09:04:14.453Z,27.75
2023-05-20T09:05:14.551Z,27.75
2023-05-20T09:06:14.464Z,27.76
2023-05-20T09:07:14.476Z,27.79
2023-05-20T09:08:14.465Z,27.76
2023-05-20T09:09:14.478Z,27.71
2023-05-20T09:10:14.505Z,27.73
2023-05-20T09:11:14.491Z,27.79
2023-05-20T09:12:14.493Z,27.76
2023-05-20T09:13:14.531Z,27.75
2023-05-20T09:14:14.543Z,27.73
2023-05-20T09:15:14.538Z,27.71
2023-05-20T09:16:14.567Z,27.76
2023-05-20T09:17:14.557Z,27.77
2023-05-20T09:18:14.541Z,27.80
2023-05-20T09:19:14.594Z,27.76
2023-05-20T09:20:14.575Z,27.76
2023-05-20T09:21:14.563Z,27.73
2023-05-20T09:22:14.576Z,27.83
2023-05-20T09:23:14.586Z,27.76
2023-05-20T09:24:14.567Z,27.70
2023-05-20T09:25:14.593Z,27.80
2023-05-20T09:26:14.616Z,27.79
2023-05-20T09:27:14.622Z,27.83
2023-05-20T09:28:14.631Z,27.85
2023-05-20T09:29:14.631Z,27.83
2023-05-20T09:30:14.656Z,27.86
2023-05-20T09:31:14.723Z,27.88
2023-05-20T09:32:14.745Z,27.89
2023-05-20T09:33:14.670Z,27.86
2023-05-20T09:34:14.705Z,27.92
2023-05-20T09:35:14.716Z,27.95
2023-05-20T09:36:16.615Z,27.94
2023-05-20T09:37:14.731Z,28.01
2023-05-20T09:38:14.721Z,27.95
2023-05-20T09:39:14.758Z,27.96
2023-05-20T09:40:14.759Z,28.04
2023-05-20T09:41:14.781Z,28.03
2023-05-20T09:42:14.798Z,28.10
2023-05-20T09:43:14.808Z,28.08
2023-05-20T09:44:14.810Z,28.08
2023-05-20T09:45:14.825Z,28.16
2023-05-20T09:46:14.881Z,28.08
2023-05-20T09:47:14.873Z,28.21
2023-05-20T09:48:14.939Z,28.13
2023-05-20T09:49:14.897Z,28.20
2023-05-20T09:50:14.896Z,28.19
2023-05-20T09:51:14.922Z,28.19
2023-05-20T09:52:14.920Z,28.22
2023-05-20T09:53:14.957Z,28.23
2023-05-20T09:54:14.971Z,28.26
2023-05-20T09:55:15.004Z,28.29
2023-05-20T09:56:14.994Z,28.26
2023-05-20T09:57:15.035Z,28.29
2023-05-20T09:58:16.373Z,28.31
2023-05-20T09:59:15.065Z,28.28
2023-05-20T10:00:15.093Z,28.34
2023-05-20T10:01:15.158Z,28.34
2023-05-20T10:02:15.138Z,28.31
2023-05-20T10:03:15.230Z,28.34
2023-05-20T10:04:15.177Z,28.36
2023-05-20T10:05:15.181Z,28.35
2023-05-20T10:06:15.206Z,28.40
2023-05-20T10:07:15.224Z,28.42
2023-05-20T10:08:15.229Z,28.45
2023-05-20T10:09:15.261Z,28.42
2023-05-20T10:10:15.279Z,28.47
2023-05-20T10:11:15.300Z,28.41
2023-05-20T10:12:15.301Z,28.54
2023-05-20T10:13:15.315Z,28.48
2023-05-20T10:14:15.356Z,28.51
2023-05-20T10:15:15.341Z,28.53
2023-05-20T10:16:15.391Z,28.54
2023-05-20T10:17:15.399Z,28.57
2023-05-20T10:18:15.400Z,28.61
2023-05-20T10:19:15.467Z,28.58
2023-05-20T10:20:15.438Z,28.61
2023-05-20T10:21:15.459Z,28.64
2023-05-20T10:22:15.468Z,28.60
2023-05-20T10:23:15.500Z,28.60
2023-05-20T10:24:15.527Z,28.61
2023-05-20T10:25:15.551Z,28.67
2023-05-20T10:26:15.557Z,28.71
2023-05-20T10:27:15.684Z,28.67
2023-05-20T10:28:15.590Z,28.74
2023-05-20T10:29:15.608Z,28.79
2023-05-20T10:30:15.616Z,28.73
2023-05-20T10:31:15.630Z,28.80
2023-05-20T10:32:15.679Z,28.79
2023-05-20T10:33:15.753Z,28.82
2023-05-20T10:34:15.718Z,28.87
2023-05-20T10:35:15.735Z,28.83
2023-05-20T10:36:15.753Z,28.86
2023-05-20T10:37:15.760Z,28.85
2023-05-20T10:38:15.802Z,28.87
2023-05-20T10:39:15.817Z,28.89
2023-05-20T10:40:15.996Z,28.93
2023-05-20T10:41:15.836Z,28.89
2023-05-20T10:42:15.860Z,28.96
2023-05-20T10:43:15.874Z,28.89
2023-05-20T10:44:15.904Z,28.84
2023-05-20T10:45:15.929Z,28.75
2023-05-20T10:46:26.317Z,28.75
2023-05-20T10:47:25.485Z,28.62
2023-05-20T10:48:17.059Z,28.58
2023-05-20T10:49:16.009Z,28.53
2023-05-20T10:50:15.927Z,28.49
2023-05-20T10:51:15.914Z,28.42
2023-05-20T10:52:15.902Z,28.29
2023-05-20T10:53:29.293Z,28.29
2023-05-20T10:54:16.912Z,28.25
2023-05-20T10:55:15.893Z,28.23
2023-05-20T10:56:15.871Z,28.20
2023-05-20T10:57:15.868Z,28.16
2023-05-20T10:58:15.858Z,28.08
2023-05-20T10:59:15.862Z,27.98
2023-05-20T11:00:15.842Z,28.06
2023-05-20T11:01:15.884Z,27.98
2023-05-20T11:02:15.842Z,27.89
2023-05-20T11:03:15.951Z,27.80
2023-05-20T11:04:15.943Z,27.85
2023-05-20T11:05:15.826Z,27.76
2023-05-20T11:06:16.882Z,27.85
2023-05-20T11:07:15.822Z,27.76
2023-05-20T11:08:27.725Z,27.65
2023-05-20T11:09:16.836Z,27.62
2023-05-20T11:10:15.842Z,27.64
2023-05-20T11:11:15.832Z,27.64
2023-05-20T11:12:17.333Z,27.55
2023-05-20T11:13:15.874Z,27.52
2023-05-20T11:14:15.819Z,27.58
2023-05-20T11:15:15.850Z,27.49
2023-05-20T11:16:15.820Z,27.55
2023-05-20T11:17:15.796Z,27.58
2023-05-20T11:18:17.837Z,27.47
2023-05-20T11:19:15.819Z,27.47
2023-05-20T11:20:15.821Z,27.49
2023-05-20T11:21:15.762Z,27.39
2023-05-20T11:22:15.770Z,27.46
2023-05-20T11:23:15.948Z,27.47
2023-05-20T11:24:15.752Z,27.42
2023-05-20T11:25:15.725Z,27.30
2023-05-20T11:26:15.739Z,27.37
2023-05-20T11:27:15.729Z,27.36
2023-05-20T11:28:15.711Z,27.30
2023-05-20T11:29:15.706Z,27.39
2023-05-20T11:30:15.693Z,27.36
2023-05-20T11:31:15.898Z,27.32
2023-05-20T11:32:15.765Z,27.30
2023-05-20T11:33:15.730Z,27.27
2023-05-20T11:34:15.692Z,27.30
2023-05-20T11:35:15.669Z,27.29
2023-05-20T11:36:26.811Z,27.27
2023-05-20T11:37:16.654Z,27.20
2023-05-20T11:38:15.755Z,27.24
2023-05-20T11:39:15.659Z,27.17
2023-05-20T11:40:15.654Z,27.17
2023-05-20T11:41:15.628Z,27.15
2023-05-20T11:42:15.633Z,27.06
2023-05-20T11:43:15.617Z,27.07
2023-05-20T11:44:15.605Z,26.99
2023-05-20T11:45:15.596Z,27.08
2023-05-20T11:46:15.619Z,27.05
2023-05-20T11:47:17.677Z,27.01
2023-05-20T11:48:15.659Z,27.04
2023-05-20T11:49:15.594Z,26.95
2023-05-20T11:50:15.578Z,27.05
2023-05-20T11:51:15.549Z,26.96
2023-05-20T11:52:15.567Z,26.96
2023-05-20T11:53:15.546Z,27.05
2023-05-20T11:54:15.551Z,26.99
2023-05-20T11:55:15.526Z,26.98
2023-05-20T11:56:15.538Z,26.93
2023-05-20T11:57:15.517Z,26.91
2023-05-20T11:58:15.507Z,26.91
2023-05-20T11:59:15.516Z,26.79
2023-05-20T12:00:15.493Z,26.88
2023-05-20T12:02:16.551Z,26.79
2023-05-20T12:03:15.585Z,26.86
2023-05-20T12:04:15.537Z,26.91
2023-05-20T12:05:15.473Z,26.86
2023-05-20T12:06:15.450Z,26.76
2023-05-20T12:07:15.444Z,26.69
2023-05-20T12:08:15.438Z,26.74
2023-05-20T12:09:15.460Z,26.76
2023-05-20T12:10:15.430Z,26.76
2023-05-20T12:11:15.438Z,26.79
2023-05-20T12:12:15.433Z,26.73
2023-05-20T12:13:15.410Z,26.73
2023-05-20T12:14:15.420Z,26.76
2023-05-20T12:15:15.401Z,26.55
2023-05-20T12:16:15.421Z,26.64
2023-05-20T12:17:15.404Z,26.67
2023-05-20T12:18:15.407Z,26.74
2023-05-20T12:19:15.423Z,26.66
2023-05-20T12:20:15.373Z,26.68
2023-05-20T12:21:15.403Z,26.61
2023-05-20T12:22:15.451Z,26.63
2023-05-20T12:23:15.479Z,26.67
2023-05-20T12:24:15.513Z,26.70
2023-05-20T12:25:15.536Z,26.67
2023-05-20T12:26:15.550Z,26.63
2023-05-20T12:27:15.600Z,26.55
2023-05-20T12:28:15.623Z,26.67
2023-05-20T12:29:15.649Z,26.60
2023-05-20T12:30:15.671Z,26.70
2023-05-20T12:31:15.725Z,26.55
2023-05-20T12:32:15.742Z,26.61
2023-05-20T12:33:15.752Z,26.50
2023-05-20T12:34:15.804Z,26.57
2023-05-20T12:35:15.817Z,26.46
2023-05-20T12:36:15.836Z,26.50
2023-05-20T12:37:15.893Z,26.46
2023-05-20T12:38:15.921Z,26.55
2023-05-20T12:39:15.940Z,26.51
2023-05-20T12:40:15.953Z,26.51
2023-05-20T12:41:15.987Z,26.48
2023-05-20T12:42:16.020Z,26.57
2023-05-20T12:43:16.063Z,26.52
2023-05-20T12:44:16.089Z,26.56
2023-05-20T12:45:16.127Z,26.56
2023-05-20T12:46:16.168Z,26.49
2023-05-20T12:47:16.262Z,26.47
2023-05-20T12:48:16.207Z,26.49
2023-05-20T12:49:16.267Z,26.55
2023-05-20T12:50:16.277Z,26.52
2023-05-20T12:51:16.387Z,26.52
2023-05-20T12:52:22.247Z,26.53
2023-05-20T12:53:17.336Z,26.56
2023-05-20T12:54:16.398Z,26.53